X  ZamknijMetar - Lotnicze dane pogodowe     EPKT Katowice International Airport

Temperatura

14°C Temperatura

13°C Punkt rosy

94% Wilgotność



Wiatr

 8 km/h

 5 MPH

 2 m/s

 4 KTS



50°
NE
Obecne warunki

Bezchmurnie Bezchmurnie
Ciśnienie 1020.92 (hPa) - 30.15 (in)
Widoczność 6.2 (mi) - 10 (km)
Lotnisko
Kod lotniska EPKT

Lokalizacja Katowice International Airport 23 (km)

Metar:
EPKT 052200Z 05004KT CAVOK 14/13 Q1021

Czas: 06-08-2020 00:00